Battiest, Oklahoma
Current Conditions -  °F | °C
As of 12:35 PM on Sunday 21 Dec 2014 (Local Time) from K4O4 Reporting Station
Broken Clouds Broken Clouds  
Wind Chill: 44°   Ceiling: 7500
Heat Index: 48°   Visibility: 10mi
Dew Point: 37°   Wind: 9mph
Humidity: 66%   Direction: 150°SSE
Pressure: 30.03"   Gusts: NA
Location:  34.39°N, 94.92°W
Report Text: K4O4 211835Z AUTO 15008KT 10SM SCT038 BKN075 09/03 A3003 RMK AO2
Loading
Personal Weather Stations






























Interactive Weather Map New forecast layout! Learn more

10-Day Weather Forecast

Advertisements
Track Severe Weather on mobile